createdAt,value
2018-09-21T00:02:46.572Z,100288.98
2018-09-21T00:05:51.375Z,100288.50
2018-09-21T00:08:55.423Z,100283.78
2018-09-21T00:11:59.415Z,100282.62
2018-09-21T00:15:03.484Z,100280.98
2018-09-21T00:18:07.801Z,100270.59
2018-09-21T00:21:11.892Z,100266.84
2018-09-21T00:24:15.985Z,100261.64
2018-09-21T00:27:20.006Z,100260.22
2018-09-21T00:30:23.996Z,100248.33
2018-09-21T00:33:28.505Z,100251.53
2018-09-21T00:36:33.082Z,100241.14
2018-09-21T00:39:37.144Z,100237.01
2018-09-21T00:42:41.955Z,100231.00
2018-09-21T00:45:45.984Z,100225.46
2018-09-21T00:48:49.994Z,100224.43
2018-09-21T00:51:55.066Z,100226.34
2018-09-21T00:54:59.106Z,100218.81
2018-09-21T00:58:03.485Z,100205.38
2018-09-21T01:01:07.535Z,100201.49
2018-09-21T01:04:11.684Z,100196.09
2018-09-21T01:07:16.041Z,100196.44
2018-09-21T01:10:20.156Z,100187.75
2018-09-21T01:13:24.444Z,100177.72
2018-09-21T01:16:28.945Z,100176.08
2018-09-21T01:19:32.917Z,100182.80
2018-09-21T01:22:37.365Z,100174.45
2018-09-21T01:25:42.683Z,100180.12
2018-09-21T01:28:47.584Z,100163.63
2018-09-21T01:31:51.848Z,100171.88
2018-09-21T01:34:56.176Z,100166.00
2018-09-21T01:38:00.518Z,100166.95
2018-09-21T01:41:04.564Z,100165.45
2018-09-21T01:44:09.664Z,100158.14
2018-09-21T01:47:13.890Z,100152.14
2018-09-21T01:50:17.953Z,100146.95
2018-09-21T01:53:23.498Z,100146.61
2018-09-21T01:56:28.204Z,100144.36
2018-09-21T01:59:32.254Z,100143.41
2018-09-21T02:02:36.296Z,100130.91
2018-09-21T02:05:40.488Z,100129.00
2018-09-21T02:08:44.603Z,100120.06
2018-09-21T02:11:49.445Z,100112.63
2018-09-21T02:14:53.425Z,100112.97
2018-09-21T02:17:57.875Z,100110.85
2018-09-21T02:21:02.600Z,100108.73
2018-09-21T02:24:07.265Z,100104.37
2018-09-21T02:27:11.941Z,100091.05
2018-09-21T02:30:16.240Z,100082.32
2018-09-21T02:33:20.335Z,100080.55
2018-09-21T02:36:24.463Z,100073.11
2018-09-21T02:39:28.544Z,100063.55
2018-09-21T02:42:33.083Z,100064.85
2018-09-21T02:45:37.521Z,100056.59
2018-09-21T02:48:41.558Z,100057.76
2018-09-21T02:51:46.267Z,100046.09
2018-09-21T02:54:50.291Z,100042.77
2018-09-21T02:57:54.295Z,100041.61
2018-09-21T03:00:59.406Z,100039.02
2018-09-21T03:04:03.545Z,100031.82
2018-09-21T03:07:08.291Z,100033.49
2018-09-21T03:10:12.336Z,100024.41
2018-09-21T03:13:16.481Z,100024.75
2018-09-21T03:16:20.923Z,100013.66
2018-09-21T03:19:25.569Z,100006.94
2018-09-21T03:22:30.305Z,99998.00
2018-09-21T03:25:34.294Z,99986.09
2018-09-21T03:28:38.481Z,99986.09
2018-09-21T03:31:42.496Z,99980.56
2018-09-21T03:34:46.490Z,99971.34
2018-09-21T03:37:50.615Z,99968.27
2018-09-21T03:40:55.567Z,99963.22
2018-09-21T03:44:00.293Z,99958.95
2018-09-21T03:47:05.100Z,99957.91
2018-09-21T03:50:09.487Z,99953.91
2018-09-21T03:53:13.764Z,99947.42
2018-09-21T03:56:17.833Z,99937.97
2018-09-21T03:59:21.806Z,99927.59
2018-09-21T04:02:26.807Z,99915.72
2018-09-21T04:05:30.905Z,99900.02
2018-09-21T04:08:36.144Z,99894.02
2018-09-21T04:11:40.695Z,99893.06
2018-09-21T04:14:45.757Z,99882.20
2018-09-21T04:17:49.871Z,99866.64
2018-09-21T04:20:54.666Z,99861.46
2018-09-21T04:23:58.704Z,99855.45
2018-09-21T04:27:03.002Z,99853.23
2018-09-21T04:30:07.274Z,99831.52
2018-09-21T04:33:11.571Z,99820.05
2018-09-21T04:36:20.545Z,99815.73
2018-09-21T04:39:31.375Z,99804.49
2018-09-21T04:42:41.934Z,99808.05
2018-09-21T04:45:56.385Z,99816.75
2018-09-21T04:49:12.859Z,99814.25
2018-09-21T04:52:23.325Z,99805.79
2018-09-21T04:55:31.848Z,99805.79
2018-09-21T04:58:39.442Z,99790.28
2018-09-21T05:01:44.264Z,99783.98
2018-09-21T05:04:48.433Z,99771.50
2018-09-21T05:07:52.413Z,99761.88
2018-09-21T05:10:56.731Z,99756.60
2018-09-21T05:14:00.798Z,99751.41
2018-09-21T05:17:04.781Z,99746.59
2018-09-21T05:20:09.184Z,99735.45
2018-09-21T05:23:13.194Z,99723.10
2018-09-21T05:26:17.216Z,99718.83
2018-09-21T05:29:21.214Z,99706.14
2018-09-21T05:32:25.211Z,99711.27
2018-09-21T05:35:29.443Z,99697.22
2018-09-21T05:38:33.496Z,99690.40
2018-09-21T05:41:37.582Z,99690.18
2018-09-21T05:44:41.559Z,99683.69
2018-09-21T05:47:45.655Z,99678.84
2018-09-21T05:50:50.184Z,99677.24
2018-09-21T05:53:54.178Z,99683.84
2018-09-21T05:56:58.278Z,99678.84
2018-09-21T06:00:02.443Z,99682.03
2018-09-21T06:03:06.768Z,99679.56
2018-09-21T06:06:10.794Z,99691.10
2018-09-21T06:09:14.808Z,99683.60
2018-09-21T06:12:18.790Z,99664.16
2018-09-21T06:15:23.114Z,99657.91
2018-09-21T06:18:27.090Z,99649.99
2018-09-21T06:21:31.535Z,99645.70
2018-09-21T06:24:35.645Z,99652.16
2018-09-21T06:27:40.100Z,99642.98
2018-09-21T06:30:44.062Z,99636.72
2018-09-21T06:33:48.076Z,99624.41
2018-09-21T06:36:52.067Z,99621.25
2018-09-21T06:39:56.094Z,99617.92
2018-09-21T06:43:00.172Z,99607.84
2018-09-21T06:46:04.235Z,99594.91
2018-09-21T06:49:08.342Z,99591.50
2018-09-21T06:52:12.890Z,99572.34
2018-09-21T06:55:16.959Z,99561.65
2018-09-21T06:58:20.964Z,99559.75
2018-09-21T07:01:24.981Z,99565.02
2018-09-21T07:04:29.177Z,99545.98
2018-09-21T07:07:33.185Z,99562.13
2018-09-21T07:10:37.554Z,99563.92
2018-09-21T07:13:41.605Z,99550.91
2018-09-21T07:16:45.850Z,99549.32
2018-09-21T07:19:49.822Z,99544.63
2018-09-21T07:22:54.033Z,99539.09
2018-09-21T07:25:58.356Z,99543.81
2018-09-21T07:29:02.824Z,99535.22
2018-09-21T07:32:07.005Z,99540.46
2018-09-21T07:35:11.646Z,99549.92
2018-09-21T07:38:15.736Z,99540.83
2018-09-21T07:41:20.229Z,99551.23
2018-09-21T07:44:24.464Z,99547.66
2018-09-21T07:47:28.615Z,99541.98
2018-09-21T07:50:32.955Z,99543.45
2018-09-21T07:53:37.206Z,99556.63
2018-09-21T07:56:41.158Z,99555.35
2018-09-21T07:59:45.146Z,99535.80
2018-09-21T08:02:49.173Z,99531.38
2018-09-21T08:05:53.551Z,99537.23
2018-09-21T08:08:57.588Z,99535.60
2018-09-21T08:12:01.832Z,99526.17
2018-09-21T08:15:06.136Z,99519.00
2018-09-21T08:18:10.480Z,99524.33
2018-09-21T08:21:14.717Z,99533.78
2018-09-21T08:24:18.666Z,99536.87
2018-09-21T08:27:22.776Z,99525.96
2018-09-21T08:30:26.758Z,99496.09
2018-09-21T08:33:30.766Z,99489.97
2018-09-21T08:36:35.056Z,99487.88
2018-09-21T08:39:39.036Z,99488.67
2018-09-21T08:42:43.244Z,99486.72
2018-09-21T08:45:47.755Z,99488.46
2018-09-21T08:48:51.746Z,99489.20
2018-09-21T08:51:56.024Z,99483.31
2018-09-21T08:55:00.350Z,99493.94
2018-09-21T08:58:05.279Z,99495.73
2018-09-21T09:01:09.477Z,99497.67
2018-09-21T09:04:13.514Z,99493.86
2018-09-21T09:07:17.587Z,99491.91
2018-09-21T09:10:21.706Z,99502.54
2018-09-21T09:13:25.685Z,99501.73
2018-09-21T09:16:30.154Z,99508.25
2018-09-21T09:19:34.165Z,99497.77
2018-09-21T09:22:38.331Z,99502.28
2018-09-21T09:25:43.175Z,99498.37
2018-09-21T09:28:47.645Z,99488.86
2018-09-21T09:31:51.646Z,99496.47
2018-09-21T09:34:55.646Z,99502.38
2018-09-21T09:37:59.616Z,99500.27
2018-09-21T09:41:04.164Z,99519.17
2018-09-21T09:44:08.417Z,99510.66
2018-09-21T09:47:12.467Z,99520.09
2018-09-21T09:50:16.917Z,99491.42
2018-09-21T09:53:21.145Z,99495.52
2018-09-21T09:56:25.536Z,99506.78
2018-09-21T09:59:29.665Z,99512.24
2018-09-21T10:02:37.874Z,99506.20
2018-09-21T10:05:43.435Z,99514.53
2018-09-21T10:08:47.685Z,99505.07
2018-09-21T10:11:51.654Z,99514.03
2018-09-21T10:14:55.975Z,99513.09
2018-09-21T10:18:00.242Z,99497.97
2018-09-21T10:21:04.560Z,99493.45
2018-09-21T10:24:08.641Z,99502.77
2018-09-21T10:27:12.839Z,99510.84
2018-09-21T10:30:17.371Z,99514.75
2018-09-21T10:33:21.490Z,99502.04
2018-09-21T10:36:26.284Z,99497.03
2018-09-21T10:39:30.965Z,99493.61
2018-09-21T10:42:35.441Z,99503.73
2018-09-21T10:45:39.949Z,99490.34
2018-09-21T10:48:43.942Z,99493.16
2018-09-21T10:51:48.765Z,99496.64
2018-09-21T10:54:53.405Z,99497.28
2018-09-21T10:57:57.469Z,99506.30
2018-09-21T11:01:01.429Z,99520.36
2018-09-21T11:04:05.694Z,99562.62
2018-09-21T11:07:10.184Z,99606.98
2018-09-21T11:10:15.049Z,99635.77
2018-09-21T11:13:19.069Z,99647.95
2018-09-21T11:16:24.155Z,99651.18
2018-09-21T11:19:28.246Z,99652.97
2018-09-21T11:22:32.385Z,99658.74
2018-09-21T11:25:37.033Z,99650.68
2018-09-21T11:28:41.277Z,99672.36
2018-09-21T11:31:45.634Z,99668.53
2018-09-21T11:34:49.649Z,99707.65
2018-09-21T11:37:53.845Z,99718.34
2018-09-21T11:40:58.382Z,99720.84
2018-09-21T11:44:02.648Z,99709.91
2018-09-21T11:47:06.706Z,99721.11
2018-09-21T11:50:11.584Z,99730.92
2018-09-21T11:53:15.564Z,99719.41
2018-09-21T11:56:20.334Z,99715.42
2018-09-21T11:59:24.435Z,99730.67
2018-09-21T12:02:28.634Z,99737.51
2018-09-21T12:05:32.641Z,99762.20
2018-09-21T12:08:38.354Z,99780.10
2018-09-21T12:11:43.175Z,99795.28
2018-09-21T12:14:47.365Z,99790.95
2018-09-21T12:17:52.054Z,99785.88
2018-09-21T12:20:56.055Z,99778.14
2018-09-21T12:24:00.219Z,99771.31
2018-09-21T12:27:04.365Z,99770.49
2018-09-21T12:30:08.365Z,99782.48
2018-09-21T12:33:12.706Z,99782.90
2018-09-21T12:36:16.768Z,99789.29
2018-09-21T12:39:21.086Z,99793.17
2018-09-21T12:42:25.196Z,99791.67
2018-09-21T12:45:29.813Z,99788.00
2018-09-21T12:48:33.789Z,99786.57
2018-09-21T12:51:38.343Z,99772.89
2018-09-21T12:54:42.325Z,99801.64
2018-09-21T12:57:46.369Z,99833.50
2018-09-21T13:00:50.946Z,99838.59
2018-09-21T13:03:54.956Z,99834.84
2018-09-21T13:06:58.914Z,99819.52
2018-09-21T13:10:03.368Z,99823.29
2018-09-21T13:13:07.905Z,99816.72
2018-09-21T13:16:11.898Z,99821.18
2018-09-21T13:19:16.696Z,99829.07
2018-09-21T13:22:20.691Z,99840.09
2018-09-21T13:25:24.685Z,99831.30
2018-09-21T13:28:28.778Z,99818.44
2018-09-21T13:31:33.154Z,99838.20
2018-09-21T13:34:37.465Z,99830.11
2018-09-21T13:37:42.113Z,99845.62
2018-09-21T13:40:46.616Z,99837.03
2018-09-21T13:43:50.708Z,99825.39
2018-09-21T13:46:55.170Z,99816.09
2018-09-21T13:49:59.126Z,99832.79
2018-09-21T13:53:03.574Z,99830.33
2018-09-21T13:56:07.745Z,99829.40
2018-09-21T13:59:11.936Z,99831.52
2018-09-21T14:02:16.216Z,99832.82
2018-09-21T14:05:20.495Z,99830.56
2018-09-21T14:08:24.746Z,99844.25
2018-09-21T14:11:28.737Z,99854.86
2018-09-21T14:14:32.812Z,99853.45
2018-09-21T14:17:37.142Z,99856.16
2018-09-21T14:20:41.451Z,99871.26
2018-09-21T14:23:45.442Z,99864.92
2018-09-21T14:26:49.421Z,99861.73
2018-09-21T14:29:53.423Z,99875.48
2018-09-21T14:32:57.499Z,99877.59
2018-09-21T14:36:01.613Z,99886.31
2018-09-21T14:39:08.161Z,99894.02
2018-09-21T14:42:12.328Z,99897.17
2018-09-21T14:45:16.296Z,99901.81
2018-09-21T14:48:20.401Z,99914.95
2018-09-21T14:51:24.624Z,99907.13
2018-09-21T14:54:28.612Z,99897.03
2018-09-21T14:57:32.582Z,99902.06
2018-09-21T15:00:36.566Z,99909.38
2018-09-21T15:03:40.529Z,99914.80
2018-09-21T15:06:44.554Z,99917.14
2018-09-21T15:09:48.535Z,99929.83
2018-09-21T15:12:52.506Z,99927.14
2018-09-21T15:15:56.947Z,99924.27
2018-09-21T15:19:00.928Z,99913.72
2018-09-21T15:22:04.980Z,99915.70
2018-09-21T15:25:09.095Z,99933.83
2018-09-21T15:28:13.418Z,99937.70
2018-09-21T15:31:17.682Z,99931.02
2018-09-21T15:34:21.621Z,99931.48
2018-09-21T15:37:25.666Z,99921.96
2018-09-21T15:40:29.634Z,99928.27
2018-09-21T15:43:33.758Z,99928.07
2018-09-21T15:46:38.007Z,99930.04
2018-09-21T15:49:41.999Z,99934.38
2018-09-21T15:52:46.027Z,99937.88
2018-09-21T15:55:50.103Z,99953.27
2018-09-21T15:58:54.435Z,99959.88
2018-09-21T16:01:58.797Z,99959.42
2018-09-21T16:05:04.115Z,99960.12
2018-09-21T16:08:08.611Z,99969.29
2018-09-21T16:11:13.602Z,99958.83
2018-09-21T16:14:18.152Z,99956.69
2018-09-21T16:17:22.332Z,99965.13
2018-09-21T16:20:26.438Z,99975.34
2018-09-21T16:23:30.529Z,99994.48
2018-09-21T16:26:34.666Z,99999.65
2018-09-21T16:29:38.927Z,99984.39
2018-09-21T16:32:43.179Z,99994.02
2018-09-21T16:35:47.477Z,99985.77
2018-09-21T16:38:51.817Z,99997.28
2018-09-21T16:41:55.934Z,99995.98
2018-09-21T16:45:00.211Z,100004.33
2018-09-21T16:48:04.314Z,100005.83
2018-09-21T16:51:08.348Z,100012.52
2018-09-21T16:54:12.715Z,100010.45
2018-09-21T16:57:16.816Z,100016.31
2018-09-21T17:00:21.576Z,100029.58
2018-09-21T17:03:25.692Z,100028.20
2018-09-21T17:06:29.860Z,100040.28
2018-09-21T17:09:34.251Z,100033.45
2018-09-21T17:12:38.566Z,100044.00
2018-09-21T17:15:42.751Z,100054.79
2018-09-21T17:18:46.766Z,100056.96
2018-09-21T17:21:51.174Z,100073.51
2018-09-21T17:24:55.154Z,100083.02
2018-09-21T17:27:59.153Z,100070.83
2018-09-21T17:31:03.479Z,100071.80
2018-09-21T17:34:08.206Z,100079.90
2018-09-21T17:37:12.796Z,100085.09
2018-09-21T17:40:16.895Z,100092.07
2018-09-21T17:43:21.466Z,100101.84
2018-09-21T17:46:26.019Z,100107.47
2018-09-21T17:49:30.056Z,100105.95
2018-09-21T17:52:34.201Z,100107.38
2018-09-21T17:55:38.426Z,100107.26
2018-09-21T17:58:42.566Z,100116.18
2018-09-21T18:01:46.609Z,100120.88
2018-09-21T18:04:50.866Z,100135.26
2018-09-21T18:07:55.247Z,100140.92
2018-09-21T18:10:59.765Z,100146.17
2018-09-21T18:14:04.380Z,100151.58
2018-09-21T18:17:09.036Z,100156.86
2018-09-21T18:20:13.168Z,100151.32
2018-09-21T18:23:17.858Z,100153.46
2018-09-21T18:26:22.022Z,100163.88
2018-09-21T18:29:26.161Z,100166.47
2018-09-21T18:32:30.283Z,100175.48
2018-09-21T18:35:34.778Z,100190.72
2018-09-21T18:38:39.228Z,100175.16
2018-09-21T18:41:43.857Z,100190.61
2018-09-21T18:44:48.207Z,100198.44
2018-09-21T18:47:52.517Z,100199.94
2018-09-21T18:50:56.786Z,100206.42
2018-09-21T18:54:01.503Z,100206.02
2018-09-21T18:57:05.547Z,100208.36
2018-09-21T19:00:10.010Z,100219.97
2018-09-21T19:03:14.255Z,100226.34
2018-09-21T19:06:18.437Z,100230.57
2018-09-21T19:09:23.085Z,100223.42
2018-09-21T19:12:27.595Z,100226.45
2018-09-21T19:15:31.802Z,100237.22
2018-09-21T19:18:36.885Z,100228.22
2018-09-21T19:21:41.456Z,100239.58
2018-09-21T19:24:45.895Z,100238.55
2018-09-21T19:27:49.986Z,100241.98
2018-09-21T19:30:54.316Z,100233.97
2018-09-21T19:33:58.766Z,100242.25
2018-09-21T19:37:02.735Z,100246.47
2018-09-21T19:40:06.726Z,100239.41
2018-09-21T19:43:10.757Z,100243.93
2018-09-21T19:46:15.076Z,100250.53
2018-09-21T19:49:19.266Z,100254.56
2018-09-21T19:52:23.446Z,100251.98
2018-09-21T19:55:27.395Z,100252.25
2018-09-21T19:58:31.352Z,100253.01
2018-09-21T20:01:35.689Z,100255.13
2018-09-21T20:04:40.276Z,100264.13
2018-09-21T20:07:44.896Z,100269.02
2018-09-21T20:10:49.156Z,100280.75
2018-09-21T20:13:53.213Z,100294.91
2018-09-21T20:16:57.179Z,100296.47
2018-09-21T20:20:01.333Z,100302.92
2018-09-21T20:23:05.824Z,100311.37
2018-09-21T20:26:09.814Z,100315.41
2018-09-21T20:29:13.856Z,100319.18
2018-09-21T20:32:23.046Z,100327.72
2018-09-21T20:35:27.103Z,100336.45
2018-09-21T20:38:31.268Z,100340.97
2018-09-21T20:41:35.235Z,100353.38
2018-09-21T20:44:39.590Z,100351.63
2018-09-21T20:47:43.766Z,100356.56
2018-09-21T20:50:47.950Z,100360.04
2018-09-21T20:53:51.955Z,100352.80
2018-09-21T20:56:56.054Z,100374.28
2018-09-21T21:00:02.126Z,100366.47
2018-09-21T21:03:06.217Z,100371.45
2018-09-21T21:06:10.215Z,100376.76
2018-09-21T21:09:14.582Z,100359.46
2018-09-21T21:12:18.669Z,100367.91
2018-09-21T21:15:22.657Z,100364.03
2018-09-21T21:18:26.761Z,100363.66
2018-09-21T21:21:30.777Z,100364.86
2018-09-21T21:24:35.019Z,100366.81
2018-09-21T21:27:39.046Z,100375.87
2018-09-21T21:30:43.417Z,100379.28
2018-09-21T21:33:47.395Z,100383.75
2018-09-21T21:36:51.657Z,100403.44
2018-09-21T21:39:55.956Z,100400.41
2018-09-21T21:42:59.945Z,100402.20
2018-09-21T21:46:04.516Z,100400.73
2018-09-21T21:49:08.489Z,100408.27
2018-09-21T21:52:12.469Z,100413.72
2018-09-21T21:55:16.522Z,100418.09
2018-09-21T21:58:20.521Z,100419.24
2018-09-21T22:01:29.947Z,100407.80
2018-09-21T22:04:34.063Z,100412.04
2018-09-21T22:07:38.885Z,100397.30
2018-09-21T22:10:43.043Z,100413.77
2018-09-21T22:13:52.485Z,100416.30
2018-09-21T22:16:56.549Z,100408.12
2018-09-21T22:20:00.564Z,100399.63
2018-09-21T22:23:04.874Z,100411.05
2018-09-21T22:26:08.970Z,100412.70
2018-09-21T22:29:13.432Z,100419.45
2018-09-21T22:32:17.750Z,100417.23
2018-09-21T22:35:22.076Z,100422.48
2018-09-21T22:38:26.036Z,100426.50
2018-09-21T22:41:30.144Z,100433.16
2018-09-21T22:44:34.195Z,100422.42
2018-09-21T22:47:38.275Z,100421.66
2018-09-21T22:50:42.265Z,100420.86
2018-09-21T22:53:46.525Z,100415.52
2018-09-21T22:56:50.583Z,100435.36
2018-09-21T22:59:54.666Z,100431.67
2018-09-21T23:03:00.159Z,100425.52
2018-09-21T23:06:04.152Z,100431.42
2018-09-21T23:09:10.878Z,100433.91
2018-09-21T23:12:14.816Z,100434.91
2018-09-21T23:15:19.198Z,100440.72
2018-09-21T23:18:23.479Z,100437.75
2018-09-21T23:21:27.631Z,100435.91
2018-09-21T23:24:34.462Z,100437.67
2018-09-21T23:27:38.674Z,100437.56
2018-09-21T23:30:43.064Z,100438.16
2018-09-21T23:33:47.159Z,100439.38
2018-09-21T23:36:51.134Z,100442.61
2018-09-21T23:39:55.106Z,100444.98
2018-09-21T23:42:59.026Z,100451.69
2018-09-21T23:46:02.977Z,100453.19
2018-09-21T23:49:07.320Z,100458.33
2018-09-21T23:52:11.609Z,100450.05
2018-09-21T23:55:15.633Z,100454.70
2018-09-21T23:58:19.732Z,100462.95
